sensor_id;sensor_type;location;lat;lon;timestamp;temperature;humidity
8591;DHT22;4333;48.322;14.340;2023-05-18T00:00:17;8.10;99.90
8591;DHT22;4333;48.322;14.340;2023-05-18T00:03:03;8.10;99.90
8591;DHT22;4333;48.322;14.340;2023-05-18T00:05:32;8.00;99.90
8591;DHT22;4333;48.322;14.340;2023-05-18T00:07:59;8.10;99.90
8591;DHT22;4333;48.322;14.340;2023-05-18T00:10:25;8.00;99.90
8591;DHT22;4333;48.322;14.340;2023-05-18T00:12:54;8.00;99.90
8591;DHT22;4333;48.322;14.340;2023-05-18T00:15:20;8.00;99.90
8591;DHT22;4333;48.322;14.340;2023-05-18T00:17:48;8.00;99.90
8591;DHT22;4333;48.322;14.340;2023-05-18T00:20:20;8.00;99.90
8591;DHT22;4333;48.322;14.340;2023-05-18T00:22:48;8.00;99.90
8591;DHT22;4333;48.322;14.340;2023-05-18T00:25:17;8.00;99.90
8591;DHT22;4333;48.322;14.340;2023-05-18T00:27:43;8.10;99.90
8591;DHT22;4333;48.322;14.340;2023-05-18T00:30:12;8.10;99.90
8591;DHT22;4333;48.322;14.340;2023-05-18T00:32:41;8.10;99.90
8591;DHT22;4333;48.322;14.340;2023-05-18T00:35:07;8.10;99.90
8591;DHT22;4333;48.322;14.340;2023-05-18T00:37:35;8.10;99.90
8591;DHT22;4333;48.322;14.340;2023-05-18T00:40:00;8.00;99.90
8591;DHT22;4333;48.322;14.340;2023-05-18T00:42:28;8.10;99.90
8591;DHT22;4333;48.322;14.340;2023-05-18T00:44:58;8.20;99.90
8591;DHT22;4333;48.322;14.340;2023-05-18T00:47:26;8.20;99.90
8591;DHT22;4333;48.322;14.340;2023-05-18T00:49:52;8.20;99.90
8591;DHT22;4333;48.322;14.340;2023-05-18T00:52:19;8.20;99.90
8591;DHT22;4333;48.322;14.340;2023-05-18T00:54:46;8.20;99.90
8591;DHT22;4333;48.322;14.340;2023-05-18T00:57:11;8.20;99.90
8591;DHT22;4333;48.322;14.340;2023-05-18T00:59:40;8.20;99.90
8591;DHT22;4333;48.322;14.340;2023-05-18T01:02:09;8.20;99.90
8591;DHT22;4333;48.322;14.340;2023-05-18T01:04:44;8.20;99.90
8591;DHT22;4333;48.322;14.340;2023-05-18T01:07:11;8.10;99.90
8591;DHT22;4333;48.322;14.340;2023-05-18T01:09:37;8.10;99.90
8591;DHT22;4333;48.322;14.340;2023-05-18T01:12:32;8.00;99.90
8591;DHT22;4333;48.322;14.340;2023-05-18T01:15:07;8.10;99.90
8591;DHT22;4333;48.322;14.340;2023-05-18T01:25:33;8.10;99.90
8591;DHT22;4333;48.322;14.340;2023-05-18T01:28:07;8.10;99.90
8591;DHT22;4333;48.322;14.340;2023-05-18T01:30:40;8.20;99.90
8591;DHT22;4333;48.322;14.340;2023-05-18T01:33:11;8.20;99.90
8591;DHT22;4333;48.322;14.340;2023-05-18T01:35:40;8.20;99.90
8591;DHT22;4333;48.322;14.340;2023-05-18T01:38:23;8.10;99.90
8591;DHT22;4333;48.322;14.340;2023-05-18T01:43:49;8.20;99.90
8591;DHT22;4333;48.322;14.340;2023-05-18T01:49:35;8.10;99.90
8591;DHT22;4333;48.322;14.340;2023-05-18T01:52:20;8.00;99.90
8591;DHT22;4333;48.322;14.340;2023-05-18T01:54:54;8.00;99.90
8591;DHT22;4333;48.322;14.340;2023-05-18T01:57:26;8.00;99.90
8591;DHT22;4333;48.322;14.340;2023-05-18T02:00:01;8.00;99.90
8591;DHT22;4333;48.322;14.340;2023-05-18T02:02:34;8.00;99.90
8591;DHT22;4333;48.322;14.340;2023-05-18T02:05:03;8.00;99.90
8591;DHT22;4333;48.322;14.340;2023-05-18T02:07:30;8.00;99.90
8591;DHT22;4333;48.322;14.340;2023-05-18T02:10:04;7.90;99.90
8591;DHT22;4333;48.322;14.340;2023-05-18T02:12:33;8.00;99.90
8591;DHT22;4333;48.322;14.340;2023-05-18T02:14:58;8.00;99.90
8591;DHT22;4333;48.322;14.340;2023-05-18T02:17:28;8.00;99.90
8591;DHT22;4333;48.322;14.340;2023-05-18T02:19:56;8.00;99.90
8591;DHT22;4333;48.322;14.340;2023-05-18T02:22:27;8.00;99.90
8591;DHT22;4333;48.322;14.340;2023-05-18T02:24:53;7.90;99.90
8591;DHT22;4333;48.322;14.340;2023-05-18T02:27:22;7.90;99.90
8591;DHT22;4333;48.322;14.340;2023-05-18T02:29:56;7.90;99.90
8591;DHT22;4333;48.322;14.340;2023-05-18T02:32:25;7.90;99.90
8591;DHT22;4333;48.322;14.340;2023-05-18T02:34:55;7.80;99.90
8591;DHT22;4333;48.322;14.340;2023-05-18T02:37:21;7.80;99.90
8591;DHT22;4333;48.322;14.340;2023-05-18T02:39:55;7.80;99.90
8591;DHT22;4333;48.322;14.340;2023-05-18T02:42:20;7.90;99.90
8591;DHT22;4333;48.322;14.340;2023-05-18T02:44:49;7.90;99.90
8591;DHT22;4333;48.322;14.340;2023-05-18T02:47:14;7.90;99.90
8591;DHT22;4333;48.322;14.340;2023-05-18T02:49:43;7.80;99.90
8591;DHT22;4333;48.322;14.340;2023-05-18T02:52:11;7.80;99.90
8591;DHT22;4333;48.322;14.340;2023-05-18T02:54:40;7.80;99.90
8591;DHT22;4333;48.322;14.340;2023-05-18T02:57:09;7.80;99.90
8591;DHT22;4333;48.322;14.340;2023-05-18T02:59:38;7.90;99.90
8591;DHT22;4333;48.322;14.340;2023-05-18T03:02:09;7.90;99.90
8591;DHT22;4333;48.322;14.340;2023-05-18T03:04:39;7.90;99.90
8591;DHT22;4333;48.322;14.340;2023-05-18T03:07:07;7.90;99.90
8591;DHT22;4333;48.322;14.340;2023-05-18T03:09:37;7.80;99.90
8591;DHT22;4333;48.322;14.340;2023-05-18T03:12:05;7.80;99.90
8591;DHT22;4333;48.322;14.340;2023-05-18T03:14:34;7.80;99.90
8591;DHT22;4333;48.322;14.340;2023-05-18T03:17:02;7.80;99.90
8591;DHT22;4333;48.322;14.340;2023-05-18T03:19:30;7.80;99.90
8591;DHT22;4333;48.322;14.340;2023-05-18T03:22:11;7.90;99.90
8591;DHT22;4333;48.322;14.340;2023-05-18T03:24:36;7.80;99.90
8591;DHT22;4333;48.322;14.340;2023-05-18T03:27:05;7.80;99.90
8591;DHT22;4333;48.322;14.340;2023-05-18T03:29:34;7.80;99.90
8591;DHT22;4333;48.322;14.340;2023-05-18T03:32:03;7.80;99.90
8591;DHT22;4333;48.322;14.340;2023-05-18T03:34:31;7.80;99.90
8591;DHT22;4333;48.322;14.340;2023-05-18T03:37:00;7.70;99.90
8591;DHT22;4333;48.322;14.340;2023-05-18T03:39:26;7.80;99.90
8591;DHT22;4333;48.322;14.340;2023-05-18T03:41:52;7.80;99.90
8591;DHT22;4333;48.322;14.340;2023-05-18T03:44:26;7.80;99.90
8591;DHT22;4333;48.322;14.340;2023-05-18T03:46:57;7.80;99.90
8591;DHT22;4333;48.322;14.340;2023-05-18T03:49:26;7.90;99.90
8591;DHT22;4333;48.322;14.340;2023-05-18T03:51:55;7.90;99.90
8591;DHT22;4333;48.322;14.340;2023-05-18T03:54:21;7.90;99.90
8591;DHT22;4333;48.322;14.340;2023-05-18T03:56:50;7.90;99.90
8591;DHT22;4333;48.322;14.340;2023-05-18T03:59:18;8.00;99.90
8591;DHT22;4333;48.322;14.340;2023-05-18T04:01:49;8.10;99.90
8591;DHT22;4333;48.322;14.340;2023-05-18T04:04:19;8.00;99.90
8591;DHT22;4333;48.322;14.340;2023-05-18T04:06:48;8.00;99.90
8591;DHT22;4333;48.322;14.340;2023-05-18T04:09:17;8.00;99.90
8591;DHT22;4333;48.322;14.340;2023-05-18T04:11:50;7.90;99.90
8591;DHT22;4333;48.322;14.340;2023-05-18T04:14:19;7.90;99.90
8591;DHT22;4333;48.322;14.340;2023-05-18T04:16:45;7.90;99.90
8591;DHT22;4333;48.322;14.340;2023-05-18T04:19:16;8.00;99.90
8591;DHT22;4333;48.322;14.340;2023-05-18T04:21:48;8.10;99.90
8591;DHT22;4333;48.322;14.340;2023-05-18T04:24:16;8.10;99.90
8591;DHT22;4333;48.322;14.340;2023-05-18T04:26:43;8.20;99.90
8591;DHT22;4333;48.322;14.340;2023-05-18T04:29:13;8.20;99.90
8591;DHT22;4333;48.322;14.340;2023-05-18T04:31:38;8.10;99.90
8591;DHT22;4333;48.322;14.340;2023-05-18T04:34:09;8.10;99.90
8591;DHT22;4333;48.322;14.340;2023-05-18T04:36:38;8.10;99.90
8591;DHT22;4333;48.322;14.340;2023-05-18T04:39:09;8.20;99.90
8591;DHT22;4333;48.322;14.340;2023-05-18T04:41:37;8.30;99.90
8591;DHT22;4333;48.322;14.340;2023-05-18T04:44:06;8.30;99.90
8591;DHT22;4333;48.322;14.340;2023-05-18T04:46:32;8.40;99.90
8591;DHT22;4333;48.322;14.340;2023-05-18T04:49:06;8.50;99.90
8591;DHT22;4333;48.322;14.340;2023-05-18T04:51:36;8.60;99.90
8591;DHT22;4333;48.322;14.340;2023-05-18T04:54:01;8.70;99.90
8591;DHT22;4333;48.322;14.340;2023-05-18T04:56:27;8.80;99.90
8591;DHT22;4333;48.322;14.340;2023-05-18T04:58:56;8.80;99.90
8591;DHT22;4333;48.322;14.340;2023-05-18T05:01:24;8.80;99.90
8591;DHT22;4333;48.322;14.340;2023-05-18T05:03:53;8.80;99.90
8591;DHT22;4333;48.322;14.340;2023-05-18T05:06:19;8.70;99.90
8591;DHT22;4333;48.322;14.340;2023-05-18T05:08:47;8.70;99.90
8591;DHT22;4333;48.322;14.340;2023-05-18T05:11:12;8.80;99.90
8591;DHT22;4333;48.322;14.340;2023-05-18T05:13:42;9.00;99.90
8591;DHT22;4333;48.322;14.340;2023-05-18T05:16:10;9.10;99.90
8591;DHT22;4333;48.322;14.340;2023-05-18T05:18:36;9.20;99.90
8591;DHT22;4333;48.322;14.340;2023-05-18T05:21:05;9.30;99.90
8591;DHT22;4333;48.322;14.340;2023-05-18T05:23:31;9.30;99.90
8591;DHT22;4333;48.322;14.340;2023-05-18T05:26:00;9.40;99.90
8591;DHT22;4333;48.322;14.340;2023-05-18T05:28:25;9.50;99.90
8591;DHT22;4333;48.322;14.340;2023-05-18T05:30:54;9.50;99.90
8591;DHT22;4333;48.322;14.340;2023-05-18T05:33:22;9.50;99.90
8591;DHT22;4333;48.322;14.340;2023-05-18T05:35:58;9.50;99.90
8591;DHT22;4333;48.322;14.340;2023-05-18T05:38:29;9.50;99.90
8591;DHT22;4333;48.322;14.340;2023-05-18T05:40:58;9.60;99.90
8591;DHT22;4333;48.322;14.340;2023-05-18T05:43:26;9.60;99.90
8591;DHT22;4333;48.322;14.340;2023-05-18T05:45:52;9.70;99.90
8591;DHT22;4333;48.322;14.340;2023-05-18T05:48:18;9.80;99.90
8591;DHT22;4333;48.322;14.340;2023-05-18T05:50:46;9.70;99.90
8591;DHT22;4333;48.322;14.340;2023-05-18T05:53:15;9.80;99.90
8591;DHT22;4333;48.322;14.340;2023-05-18T05:55:44;9.60;99.90
8591;DHT22;4333;48.322;14.340;2023-05-18T05:58:10;9.60;99.90
8591;DHT22;4333;48.322;14.340;2023-05-18T06:00:38;9.70;99.90
8591;DHT22;4333;48.322;14.340;2023-05-18T06:03:10;9.80;99.90
8591;DHT22;4333;48.322;14.340;2023-05-18T06:05:38;9.90;99.90
8591;DHT22;4333;48.322;14.340;2023-05-18T06:08:06;10.00;99.90
8591;DHT22;4333;48.322;14.340;2023-05-18T06:10:38;10.10;99.90
8591;DHT22;4333;48.322;14.340;2023-05-18T06:13:12;10.10;99.90
8591;DHT22;4333;48.322;14.340;2023-05-18T06:15:43;10.00;99.90
8591;DHT22;4333;48.322;14.340;2023-05-18T06:18:12;10.10;99.90
8591;DHT22;4333;48.322;14.340;2023-05-18T06:20:43;10.10;99.90
8591;DHT22;4333;48.322;14.340;2023-05-18T06:23:11;10.20;99.90
8591;DHT22;4333;48.322;14.340;2023-05-18T06:25:37;10.20;99.90
8591;DHT22;4333;48.322;14.340;2023-05-18T06:28:03;10.20;99.90
8591;DHT22;4333;48.322;14.340;2023-05-18T06:30:29;10.30;99.90
8591;DHT22;4333;48.322;14.340;2023-05-18T06:32:54;10.30;99.90
8591;DHT22;4333;48.322;14.340;2023-05-18T06:35:20;10.40;99.90
8591;DHT22;4333;48.322;14.340;2023-05-18T06:37:52;10.50;99.90
8591;DHT22;4333;48.322;14.340;2023-05-18T06:40:19;10.50;99.90
8591;DHT22;4333;48.322;14.340;2023-05-18T06:42:50;10.50;99.90
8591;DHT22;4333;48.322;14.340;2023-05-18T06:45:16;10.60;99.90
8591;DHT22;4333;48.322;14.340;2023-05-18T06:47:44;10.70;99.90
8591;DHT22;4333;48.322;14.340;2023-05-18T06:50:11;10.70;99.90
8591;DHT22;4333;48.322;14.340;2023-05-18T06:52:37;10.80;99.90
8591;DHT22;4333;48.322;14.340;2023-05-18T06:55:06;10.90;99.90
8591;DHT22;4333;48.322;14.340;2023-05-18T06:57:32;10.90;99.90
8591;DHT22;4333;48.322;14.340;2023-05-18T06:59:58;11.00;99.90
8591;DHT22;4333;48.322;14.340;2023-05-18T07:02:26;11.00;99.90
8591;DHT22;4333;48.322;14.340;2023-05-18T07:04:52;11.10;99.90
8591;DHT22;4333;48.322;14.340;2023-05-18T07:07:18;11.20;99.90
8591;DHT22;4333;48.322;14.340;2023-05-18T07:09:44;11.40;99.90
8591;DHT22;4333;48.322;14.340;2023-05-18T07:12:21;11.40;99.90
8591;DHT22;4333;48.322;14.340;2023-05-18T07:14:50;11.30;99.90
8591;DHT22;4333;48.322;14.340;2023-05-18T07:17:18;11.30;99.90
8591;DHT22;4333;48.322;14.340;2023-05-18T07:19:57;11.50;99.90
8591;DHT22;4333;48.322;14.340;2023-05-18T07:22:26;11.50;99.90
8591;DHT22;4333;48.322;14.340;2023-05-18T07:24:51;11.50;99.90
8591;DHT22;4333;48.322;14.340;2023-05-18T07:27:17;11.50;99.90
8591;DHT22;4333;48.322;14.340;2023-05-18T07:29:48;11.60;99.90
8591;DHT22;4333;48.322;14.340;2023-05-18T07:32:17;11.40;99.90
8591;DHT22;4333;48.322;14.340;2023-05-18T07:34:43;11.40;99.90
8591;DHT22;4333;48.322;14.340;2023-05-18T07:37:12;11.40;99.90
8591;DHT22;4333;48.322;14.340;2023-05-18T07:39:41;11.30;99.90
8591;DHT22;4333;48.322;14.340;2023-05-18T07:42:10;11.20;99.90
8591;DHT22;4333;48.322;14.340;2023-05-18T07:44:39;11.30;99.90
8591;DHT22;4333;48.322;14.340;2023-05-18T07:47:09;11.20;99.90
8591;DHT22;4333;48.322;14.340;2023-05-18T07:49:36;11.40;99.90
8591;DHT22;4333;48.322;14.340;2023-05-18T07:52:06;11.70;99.90
8591;DHT22;4333;48.322;14.340;2023-05-18T07:54:33;11.70;99.90
8591;DHT22;4333;48.322;14.340;2023-05-18T07:56:58;11.70;99.90
8591;DHT22;4333;48.322;14.340;2023-05-18T07:59:28;11.60;99.90
8591;DHT22;4333;48.322;14.340;2023-05-18T08:01:54;11.50;99.40
8591;DHT22;4333;48.322;14.340;2023-05-18T08:04:22;11.50;99.60
8591;DHT22;4333;48.322;14.340;2023-05-18T08:06:47;11.60;99.90
8591;DHT22;4333;48.322;14.340;2023-05-18T08:09:13;11.60;99.20
8591;DHT22;4333;48.322;14.340;2023-05-18T08:11:41;11.70;97.00
8591;DHT22;4333;48.322;14.340;2023-05-18T08:14:09;11.80;95.50
8591;DHT22;4333;48.322;14.340;2023-05-18T08:16:37;11.60;91.80
8591;DHT22;4333;48.322;14.340;2023-05-18T08:19:14;11.60;94.00
8591;DHT22;4333;48.322;14.340;2023-05-18T08:21:42;11.50;92.20
8591;DHT22;4333;48.322;14.340;2023-05-18T08:24:10;11.40;94.00
8591;DHT22;4333;48.322;14.340;2023-05-18T08:26:36;11.40;94.10
8591;DHT22;4333;48.322;14.340;2023-05-18T08:29:02;11.40;93.70
8591;DHT22;4333;48.322;14.340;2023-05-18T08:31:38;11.40;95.20
8591;DHT22;4333;48.322;14.340;2023-05-18T08:34:04;11.40;95.40
8591;DHT22;4333;48.322;14.340;2023-05-18T08:36:34;11.40;95.70
8591;DHT22;4333;48.322;14.340;2023-05-18T08:39:11;11.40;96.50
8591;DHT22;4333;48.322;14.340;2023-05-18T08:41:48;11.40;94.20
8591;DHT22;4333;48.322;14.340;2023-05-18T08:44:39;11.40;98.20
8591;DHT22;4333;48.322;14.340;2023-05-18T08:47:09;11.40;99.90
8591;DHT22;4333;48.322;14.340;2023-05-18T08:49:40;11.40;99.90
8591;DHT22;4333;48.322;14.340;2023-05-18T08:52:07;11.40;98.00
8591;DHT22;4333;48.322;14.340;2023-05-18T08:54:39;11.20;97.10
8591;DHT22;4333;48.322;14.340;2023-05-18T08:57:11;11.10;97.40
8591;DHT22;4333;48.322;14.340;2023-05-18T08:59:46;11.10;99.90
8591;DHT22;4333;48.322;14.340;2023-05-18T09:02:13;11.10;97.50
8591;DHT22;4333;48.322;14.340;2023-05-18T09:04:42;11.10;97.10
8591;DHT22;4333;48.322;14.340;2023-05-18T09:07:09;11.10;98.30
8591;DHT22;4333;48.322;14.340;2023-05-18T09:09:37;11.00;99.90
8591;DHT22;4333;48.322;14.340;2023-05-18T09:12:14;11.10;99.90
8591;DHT22;4333;48.322;14.340;2023-05-18T09:14:42;11.20;99.90
8591;DHT22;4333;48.322;14.340;2023-05-18T09:17:10;11.20;99.90
8591;DHT22;4333;48.322;14.340;2023-05-18T09:19:36;11.20;99.50
8591;DHT22;4333;48.322;14.340;2023-05-18T09:22:02;11.20;97.80
8591;DHT22;4333;48.322;14.340;2023-05-18T09:24:32;11.20;97.60
8591;DHT22;4333;48.322;14.340;2023-05-18T09:26:58;11.20;99.10
8591;DHT22;4333;48.322;14.340;2023-05-18T09:29:23;11.10;99.90
8591;DHT22;4333;48.322;14.340;2023-05-18T09:31:49;11.10;99.90
8591;DHT22;4333;48.322;14.340;2023-05-18T09:34:16;11.20;99.90
8591;DHT22;4333;48.322;14.340;2023-05-18T09:36:47;11.30;99.90
8591;DHT22;4333;48.322;14.340;2023-05-18T09:39:14;11.60;99.90
8591;DHT22;4333;48.322;14.340;2023-05-18T09:41:42;11.60;99.90
8591;DHT22;4333;48.322;14.340;2023-05-18T09:44:08;11.70;98.50
8591;DHT22;4333;48.322;14.340;2023-05-18T09:46:35;11.80;94.10
8591;DHT22;4333;48.322;14.340;2023-05-18T09:49:03;11.60;90.40
8591;DHT22;4333;48.322;14.340;2023-05-18T09:51:29;11.60;92.40
8591;DHT22;4333;48.322;14.340;2023-05-18T09:53:58;11.80;96.40
8591;DHT22;4333;48.322;14.340;2023-05-18T09:56:25;12.00;96.30
8591;DHT22;4333;48.322;14.340;2023-05-18T09:58:51;12.00;92.90
8591;DHT22;4333;48.322;14.340;2023-05-18T10:01:17;12.20;95.00
8591;DHT22;4333;48.322;14.340;2023-05-18T10:03:46;12.30;83.70
8591;DHT22;4333;48.322;14.340;2023-05-18T10:06:14;12.40;79.10
8591;DHT22;4333;48.322;14.340;2023-05-18T10:08:44;12.70;77.50
8591;DHT22;4333;48.322;14.340;2023-05-18T10:11:16;12.40;74.80
8591;DHT22;4333;48.322;14.340;2023-05-18T10:13:44;12.30;83.80
8591;DHT22;4333;48.322;14.340;2023-05-18T10:16:13;12.20;91.20
8591;DHT22;4333;48.322;14.340;2023-05-18T10:18:39;12.20;94.50
8591;DHT22;4333;48.322;14.340;2023-05-18T10:21:06;12.00;99.90
8591;DHT22;4333;48.322;14.340;2023-05-18T10:23:51;12.10;98.10
8591;DHT22;4333;48.322;14.340;2023-05-18T10:26:21;12.00;92.30
8591;DHT22;4333;48.322;14.340;2023-05-18T10:28:49;12.10;92.00
8591;DHT22;4333;48.322;14.340;2023-05-18T10:31:18;12.20;92.30
8591;DHT22;4333;48.322;14.340;2023-05-18T10:33:46;12.50;93.30
8591;DHT22;4333;48.322;14.340;2023-05-18T10:36:12;12.60;90.50
8591;DHT22;4333;48.322;14.340;2023-05-18T10:38:39;12.50;89.10
8591;DHT22;4333;48.322;14.340;2023-05-18T10:41:10;12.50;82.80
8591;DHT22;4333;48.322;14.340;2023-05-18T10:43:40;12.70;90.20
8591;DHT22;4333;48.322;14.340;2023-05-18T10:46:09;13.00;91.10
8591;DHT22;4333;48.322;14.340;2023-05-18T10:48:38;13.10;86.70
8591;DHT22;4333;48.322;14.340;2023-05-18T10:51:07;12.90;81.00
8591;DHT22;4333;48.322;14.340;2023-05-18T10:53:33;12.70;80.00
8591;DHT22;4333;48.322;14.340;2023-05-18T10:55:59;12.60;81.20
8591;DHT22;4333;48.322;14.340;2023-05-18T10:58:28;12.90;85.80
8591;DHT22;4333;48.322;14.340;2023-05-18T11:00:59;13.10;91.20
8591;DHT22;4333;48.322;14.340;2023-05-18T11:03:26;13.30;80.50
8591;DHT22;4333;48.322;14.340;2023-05-18T11:06:06;12.90;77.20
8591;DHT22;4333;48.322;14.340;2023-05-18T11:08:49;12.40;87.80
8591;DHT22;4333;48.322;14.340;2023-05-18T11:11:22;12.20;91.40
8591;DHT22;4333;48.322;14.340;2023-05-18T11:13:50;12.50;93.20
8591;DHT22;4333;48.322;14.340;2023-05-18T11:16:19;12.40;90.10
8591;DHT22;4333;48.322;14.340;2023-05-18T11:18:50;12.60;91.40
8591;DHT22;4333;48.322;14.340;2023-05-18T11:21:29;12.70;90.60
8591;DHT22;4333;48.322;14.340;2023-05-18T11:26:46;12.60;89.50
8591;DHT22;4333;48.322;14.340;2023-05-18T11:29:32;12.80;88.40
8591;DHT22;4333;48.322;14.340;2023-05-18T11:32:01;12.90;88.60
8591;DHT22;4333;48.322;14.340;2023-05-18T11:34:45;13.00;90.10
8591;DHT22;4333;48.322;14.340;2023-05-18T11:37:14;12.70;83.90
8591;DHT22;4333;48.322;14.340;2023-05-18T11:39:57;12.40;89.10
8591;DHT22;4333;48.322;14.340;2023-05-18T11:42:33;12.60;92.60
8591;DHT22;4333;48.322;14.340;2023-05-18T11:47:37;12.90;90.70
8591;DHT22;4333;48.322;14.340;2023-05-18T11:50:08;12.70;89.00
8591;DHT22;4333;48.322;14.340;2023-05-18T11:52:51;12.50;90.60
8591;DHT22;4333;48.322;14.340;2023-05-18T11:55:36;12.30;92.10
8591;DHT22;4333;48.322;14.340;2023-05-18T11:58:06;12.30;91.60
8591;DHT22;4333;48.322;14.340;2023-05-18T12:00:35;12.40;93.00
8591;DHT22;4333;48.322;14.340;2023-05-18T12:03:02;12.30;91.40
8591;DHT22;4333;48.322;14.340;2023-05-18T12:05:31;12.20;94.60
8591;DHT22;4333;48.322;14.340;2023-05-18T12:07:59;12.20;90.80
8591;DHT22;4333;48.322;14.340;2023-05-18T12:10:25;12.10;91.30
8591;DHT22;4333;48.322;14.340;2023-05-18T12:12:52;12.00;93.40
8591;DHT22;4333;48.322;14.340;2023-05-18T12:15:21;12.00;95.20
8591;DHT22;4333;48.322;14.340;2023-05-18T12:17:49;11.90;97.70
8591;DHT22;4333;48.322;14.340;2023-05-18T12:20:20;12.00;98.70
8591;DHT22;4333;48.322;14.340;2023-05-18T12:22:48;12.00;94.90
8591;DHT22;4333;48.322;14.340;2023-05-18T12:25:22;12.00;94.10
8591;DHT22;4333;48.322;14.340;2023-05-18T12:27:50;11.90;94.80
8591;DHT22;4333;48.322;14.340;2023-05-18T12:30:23;12.00;93.30
8591;DHT22;4333;48.322;14.340;2023-05-18T12:32:59;12.00;93.00
8591;DHT22;4333;48.322;14.340;2023-05-18T12:35:28;12.30;94.80
8591;DHT22;4333;48.322;14.340;2023-05-18T12:38:00;12.50;93.30
8591;DHT22;4333;48.322;14.340;2023-05-18T12:40:38;12.70;96.30
8591;DHT22;4333;48.322;14.340;2023-05-18T12:43:13;12.70;94.50
8591;DHT22;4333;48.322;14.340;2023-05-18T12:45:46;12.50;91.60
8591;DHT22;4333;48.322;14.340;2023-05-18T12:48:12;12.60;90.60
8591;DHT22;4333;48.322;14.340;2023-05-18T12:50:48;12.70;90.00
8591;DHT22;4333;48.322;14.340;2023-05-18T12:53:15;12.70;90.50
8591;DHT22;4333;48.322;14.340;2023-05-18T12:55:41;12.50;91.70
8591;DHT22;4333;48.322;14.340;2023-05-18T12:58:12;12.30;95.80
8591;DHT22;4333;48.322;14.340;2023-05-18T13:00:43;12.20;97.20
8591;DHT22;4333;48.322;14.340;2023-05-18T13:03:11;12.00;95.80
8591;DHT22;4333;48.322;14.340;2023-05-18T13:05:38;11.90;99.90
8591;DHT22;4333;48.322;14.340;2023-05-18T13:08:07;11.70;99.90
8591;DHT22;4333;48.322;14.340;2023-05-18T13:10:35;11.80;99.90
8591;DHT22;4333;48.322;14.340;2023-05-18T13:13:05;11.70;99.90
8591;DHT22;4333;48.322;14.340;2023-05-18T13:15:36;11.60;99.90
8591;DHT22;4333;48.322;14.340;2023-05-18T13:18:04;11.70;99.90
8591;DHT22;4333;48.322;14.340;2023-05-18T13:20:42;11.80;99.90
8591;DHT22;4333;48.322;14.340;2023-05-18T13:23:13;11.80;99.90
8591;DHT22;4333;48.322;14.340;2023-05-18T13:25:42;11.90;99.90
8591;DHT22;4333;48.322;14.340;2023-05-18T13:28:09;11.80;99.90
8591;DHT22;4333;48.322;14.340;2023-05-18T13:30:44;11.80;99.90
8591;DHT22;4333;48.322;14.340;2023-05-18T13:33:11;11.70;99.90
8591;DHT22;4333;48.322;14.340;2023-05-18T13:35:42;11.60;99.90
8591;DHT22;4333;48.322;14.340;2023-05-18T13:38:11;11.70;99.90
8591;DHT22;4333;48.322;14.340;2023-05-18T13:40:41;11.70;99.90
8591;DHT22;4333;48.322;14.340;2023-05-18T13:43:11;11.60;99.90
8591;DHT22;4333;48.322;14.340;2023-05-18T13:45:38;11.60;99.90
8591;DHT22;4333;48.322;14.340;2023-05-18T13:48:04;11.60;99.90
8591;DHT22;4333;48.322;14.340;2023-05-18T13:50:34;11.50;99.90
8591;DHT22;4333;48.322;14.340;2023-05-18T13:53:02;11.50;99.90
8591;DHT22;4333;48.322;14.340;2023-05-18T13:55:31;11.60;99.90
8591;DHT22;4333;48.322;14.340;2023-05-18T13:57:57;11.70;99.90
8591;DHT22;4333;48.322;14.340;2023-05-18T14:00:26;11.80;99.90
8591;DHT22;4333;48.322;14.340;2023-05-18T14:02:52;12.10;99.90
8591;DHT22;4333;48.322;14.340;2023-05-18T14:05:24;12.40;99.90
8591;DHT22;4333;48.322;14.340;2023-05-18T14:07:51;12.60;99.90
8591;DHT22;4333;48.322;14.340;2023-05-18T14:10:17;12.60;97.50
8591;DHT22;4333;48.322;14.340;2023-05-18T14:12:44;12.80;96.60
8591;DHT22;4333;48.322;14.340;2023-05-18T14:15:13;13.00;98.10
8591;DHT22;4333;48.322;14.340;2023-05-18T14:17:39;13.00;94.80
8591;DHT22;4333;48.322;14.340;2023-05-18T14:20:07;13.10;98.30
8591;DHT22;4333;48.322;14.340;2023-05-18T14:22:36;13.30;99.10
8591;DHT22;4333;48.322;14.340;2023-05-18T14:25:03;13.30;92.90
8591;DHT22;4333;48.322;14.340;2023-05-18T14:27:31;13.20;92.60
8591;DHT22;4333;48.322;14.340;2023-05-18T14:30:03;13.20;94.10
8591;DHT22;4333;48.322;14.340;2023-05-18T14:32:30;13.30;95.30
8591;DHT22;4333;48.322;14.340;2023-05-18T14:34:58;13.50;94.60
8591;DHT22;4333;48.322;14.340;2023-05-18T14:37:24;13.50;94.10
8591;DHT22;4333;48.322;14.340;2023-05-18T14:39:53;13.50;93.20
8591;DHT22;4333;48.322;14.340;2023-05-18T14:42:24;13.60;94.20
8591;DHT22;4333;48.322;14.340;2023-05-18T14:44:53;13.60;91.70
8591;DHT22;4333;48.322;14.340;2023-05-18T14:47:21;13.50;91.70
8591;DHT22;4333;48.322;14.340;2023-05-18T14:49:47;13.50;96.30
8591;DHT22;4333;48.322;14.340;2023-05-18T14:52:15;13.60;95.40
8591;DHT22;4333;48.322;14.340;2023-05-18T14:54:41;13.70;92.10
8591;DHT22;4333;48.322;14.340;2023-05-18T14:57:09;13.80;92.20
8591;DHT22;4333;48.322;14.340;2023-05-18T14:59:38;13.40;86.30
8591;DHT22;4333;48.322;14.340;2023-05-18T15:02:04;13.30;88.30
8591;DHT22;4333;48.322;14.340;2023-05-18T15:04:32;13.20;87.20
8591;DHT22;4333;48.322;14.340;2023-05-18T15:07:03;13.00;90.60
8591;DHT22;4333;48.322;14.340;2023-05-18T15:09:34;12.80;92.50
8591;DHT22;4333;48.322;14.340;2023-05-18T15:12:02;12.70;91.70
8591;DHT22;4333;48.322;14.340;2023-05-18T15:14:31;12.50;94.10
8591;DHT22;4333;48.322;14.340;2023-05-18T15:17:02;12.50;95.80
8591;DHT22;4333;48.322;14.340;2023-05-18T15:19:28;12.40;93.70
8591;DHT22;4333;48.322;14.340;2023-05-18T15:21:57;12.40;96.40
8591;DHT22;4333;48.322;14.340;2023-05-18T15:24:22;12.40;94.30
8591;DHT22;4333;48.322;14.340;2023-05-18T15:26:50;12.40;97.60
8591;DHT22;4333;48.322;14.340;2023-05-18T15:29:36;12.50;97.60
8591;DHT22;4333;48.322;14.340;2023-05-18T15:32:07;12.70;95.40
8591;DHT22;4333;48.322;14.340;2023-05-18T15:34:44;12.60;96.50
8591;DHT22;4333;48.322;14.340;2023-05-18T15:37:12;12.70;99.00
8591;DHT22;4333;48.322;14.340;2023-05-18T15:39:40;12.80;98.30
8591;DHT22;4333;48.322;14.340;2023-05-18T15:42:09;12.70;96.30
8591;DHT22;4333;48.322;14.340;2023-05-18T15:44:38;12.40;98.50
8591;DHT22;4333;48.322;14.340;2023-05-18T15:47:06;12.40;99.90
8591;DHT22;4333;48.322;14.340;2023-05-18T15:49:34;12.40;98.80
8591;DHT22;4333;48.322;14.340;2023-05-18T15:52:00;12.40;99.90
8591;DHT22;4333;48.322;14.340;2023-05-18T15:54:28;12.60;99.90
8591;DHT22;4333;48.322;14.340;2023-05-18T15:57:01;12.60;99.90
8591;DHT22;4333;48.322;14.340;2023-05-18T15:59:33;12.50;99.90
8591;DHT22;4333;48.322;14.340;2023-05-18T16:02:07;12.40;99.90
8591;DHT22;4333;48.322;14.340;2023-05-18T16:04:35;12.30;99.90
8591;DHT22;4333;48.322;14.340;2023-05-18T16:07:06;12.20;99.90
8591;DHT22;4333;48.322;14.340;2023-05-18T16:09:32;12.10;99.90
8591;DHT22;4333;48.322;14.340;2023-05-18T16:11:59;12.10;99.90
8591;DHT22;4333;48.322;14.340;2023-05-18T16:14:39;12.10;99.90
8591;DHT22;4333;48.322;14.340;2023-05-18T16:17:07;12.10;99.90
8591;DHT22;4333;48.322;14.340;2023-05-18T16:19:35;12.10;99.90
8591;DHT22;4333;48.322;14.340;2023-05-18T16:22:01;12.10;99.90
8591;DHT22;4333;48.322;14.340;2023-05-18T16:24:36;12.00;99.90